sensor_id;sensor_type;location;lat;lon;timestamp;pressure;altitude;pressure_sealevel;temperature;humidity
40994;BME280;26722;43.212;27.932;2023-06-14T00:00:02;55031.66;;;-146.72;67.81
40994;BME280;26722;43.212;27.932;2023-06-14T00:02:29;55040.09;;;-146.72;67.95
40994;BME280;26722;43.212;27.932;2023-06-14T00:04:54;55010.53;;;-146.72;67.98
40994;BME280;26722;43.212;27.932;2023-06-14T00:07:21;55006.31;;;-146.72;67.94
40994;BME280;26722;43.212;27.932;2023-06-14T00:09:58;55031.66;;;-146.72;68.17
40994;BME280;26722;43.212;27.932;2023-06-14T00:12:23;55031.66;;;-146.72;68.08
40994;BME280;26722;43.212;27.932;2023-06-14T00:14:49;55016.88;;;-146.72;68.41
40994;BME280;26722;43.212;27.932;2023-06-14T00:17:15;55027.41;;;-146.72;68.39
40994;BME280;26722;43.212;27.932;2023-06-14T00:19:41;55027.41;;;-146.72;68.28
40994;BME280;26722;43.212;27.932;2023-06-14T00:22:06;55012.63;;;-146.72;67.94
40994;BME280;26722;43.212;27.932;2023-06-14T00:24:32;55004.19;;;-146.72;67.62
40994;BME280;26722;43.212;27.932;2023-06-14T00:26:57;55014.75;;;-146.72;67.49
40994;BME280;26722;43.212;27.932;2023-06-14T00:29:22;55027.41;;;-146.72;67.47
40994;BME280;26722;43.212;27.932;2023-06-14T00:31:48;55010.53;;;-146.72;67.15
40994;BME280;26722;43.212;27.932;2023-06-14T00:34:13;55018.97;;;-146.72;66.86
40994;BME280;26722;43.212;27.932;2023-06-14T00:36:38;55016.88;;;-146.72;67.05
40994;BME280;26722;43.212;27.932;2023-06-14T00:39:04;55014.75;;;-146.72;67.10
40994;BME280;26722;43.212;27.932;2023-06-14T00:41:29;54987.31;;;-146.72;66.96
40994;BME280;26722;43.212;27.932;2023-06-14T00:43:54;55025.31;;;-146.72;66.46
40994;BME280;26722;43.212;27.932;2023-06-14T00:46:21;55012.63;;;-146.72;66.34
40994;BME280;26722;43.212;27.932;2023-06-14T00:48:47;54997.88;;;-146.72;65.43
40994;BME280;26722;43.212;27.932;2023-06-14T00:51:13;54999.97;;;-146.72;65.53
40994;BME280;26722;43.212;27.932;2023-06-14T00:53:38;55012.63;;;-146.72;65.63
40994;BME280;26722;43.212;27.932;2023-06-14T00:56:04;55006.31;;;-146.72;65.63
40994;BME280;26722;43.212;27.932;2023-06-14T00:58:30;55018.97;;;-146.72;65.81
40994;BME280;26722;43.212;27.932;2023-06-14T01:00:57;55010.53;;;-146.72;65.73
40994;BME280;26722;43.212;27.932;2023-06-14T01:03:23;55010.53;;;-146.72;65.48
40994;BME280;26722;43.212;27.932;2023-06-14T01:06:00;55025.31;;;-146.72;65.50
40994;BME280;26722;43.212;27.932;2023-06-14T01:08:41;55010.53;;;-146.72;65.78
40994;BME280;26722;43.212;27.932;2023-06-14T01:14:09;55027.41;;;-146.72;66.36
40994;BME280;26722;43.212;27.932;2023-06-14T01:16:35;55006.31;;;-146.72;66.66
40994;BME280;26722;43.212;27.932;2023-06-14T01:19:01;55033.75;;;-146.72;66.60
40994;BME280;26722;43.212;27.932;2023-06-14T01:21:27;55035.88;;;-146.72;66.83
40994;BME280;26722;43.212;27.932;2023-06-14T01:23:53;55010.53;;;-146.72;67.53
40994;BME280;26722;43.212;27.932;2023-06-14T01:26:20;55023.19;;;-146.72;67.32
40994;BME280;26722;43.212;27.932;2023-06-14T01:28:46;55023.19;;;-146.72;67.42
40994;BME280;26722;43.212;27.932;2023-06-14T01:31:16;55035.88;;;-146.72;67.54
40994;BME280;26722;43.212;27.932;2023-06-14T01:33:42;55025.31;;;-146.72;67.49
40994;BME280;26722;43.212;27.932;2023-06-14T01:36:07;55025.31;;;-146.72;68.03
40994;BME280;26722;43.212;27.932;2023-06-14T01:38:34;55029.53;;;-146.72;67.45
40994;BME280;26722;43.212;27.932;2023-06-14T01:40:59;55023.19;;;-146.72;67.46
40994;BME280;26722;43.212;27.932;2023-06-14T01:43:26;55014.75;;;-146.72;67.98
40994;BME280;26722;43.212;27.932;2023-06-14T01:45:54;55029.53;;;-146.72;67.82
40994;BME280;26722;43.212;27.932;2023-06-14T01:48:21;55016.88;;;-146.72;67.44
40994;BME280;26722;43.212;27.932;2023-06-14T01:50:47;55021.09;;;-146.72;67.95
40994;BME280;26722;43.212;27.932;2023-06-14T01:53:13;55040.09;;;-146.72;68.71
40994;BME280;26722;43.212;27.932;2023-06-14T01:55:38;55035.88;;;-146.72;68.52
40994;BME280;26722;43.212;27.932;2023-06-14T01:58:08;55029.53;;;-146.72;68.63
40994;BME280;26722;43.212;27.932;2023-06-14T02:00:33;55035.88;;;-146.72;68.67
40994;BME280;26722;43.212;27.932;2023-06-14T02:02:59;55031.66;;;-146.72;67.87
40994;BME280;26722;43.212;27.932;2023-06-14T02:05:24;55031.66;;;-146.72;67.74
40994;BME280;26722;43.212;27.932;2023-06-14T02:07:50;55035.88;;;-146.72;68.30
40994;BME280;26722;43.212;27.932;2023-06-14T02:10:15;55014.75;;;-146.72;68.27
40994;BME280;26722;43.212;27.932;2023-06-14T02:12:42;55025.31;;;-146.72;68.57
40994;BME280;26722;43.212;27.932;2023-06-14T02:15:08;55014.75;;;-146.72;67.92
40994;BME280;26722;43.212;27.932;2023-06-14T02:17:33;55014.75;;;-146.72;68.19
40994;BME280;26722;43.212;27.932;2023-06-14T02:19:59;55010.53;;;-146.72;68.22
40994;BME280;26722;43.212;27.932;2023-06-14T02:22:25;55040.09;;;-146.72;68.22
40994;BME280;26722;43.212;27.932;2023-06-14T02:24:51;55021.09;;;-146.72;68.14
40994;BME280;26722;43.212;27.932;2023-06-14T02:27:16;55018.97;;;-146.72;67.96
40994;BME280;26722;43.212;27.932;2023-06-14T02:29:42;55029.53;;;-146.72;67.84
40994;BME280;26722;43.212;27.932;2023-06-14T02:32:07;55048.53;;;-146.72;68.20
40994;BME280;26722;43.212;27.932;2023-06-14T02:34:33;55031.66;;;-146.72;68.15
40994;BME280;26722;43.212;27.932;2023-06-14T02:36:59;55027.41;;;-146.72;68.47
40994;BME280;26722;43.212;27.932;2023-06-14T02:39:24;55029.53;;;-146.72;68.03
40994;BME280;26722;43.212;27.932;2023-06-14T02:41:49;55023.19;;;-146.72;68.03
40994;BME280;26722;43.212;27.932;2023-06-14T02:44:17;55035.88;;;-146.72;68.15
40994;BME280;26722;43.212;27.932;2023-06-14T02:46:42;55027.41;;;-146.72;68.36
40994;BME280;26722;43.212;27.932;2023-06-14T02:49:09;55027.41;;;-146.72;68.14
40994;BME280;26722;43.212;27.932;2023-06-14T02:51:34;55048.53;;;-146.72;68.59
40994;BME280;26722;43.212;27.932;2023-06-14T02:53:59;55031.66;;;-146.72;68.71
40994;BME280;26722;43.212;27.932;2023-06-14T02:56:25;55033.75;;;-146.72;68.16
40994;BME280;26722;43.212;27.932;2023-06-14T02:58:51;54995.75;;;-146.72;68.18
40994;BME280;26722;43.212;27.932;2023-06-14T03:01:18;55014.75;;;-146.72;68.42
40994;BME280;26722;43.212;27.932;2023-06-14T03:03:45;55012.63;;;-146.72;66.42
40994;BME280;26722;43.212;27.932;2023-06-14T03:06:11;55002.09;;;-146.72;64.92
40994;BME280;26722;43.212;27.932;2023-06-14T03:08:39;54980.97;;;-146.72;62.94
40994;BME280;26722;43.212;27.932;2023-06-14T03:11:05;54995.75;;;-146.72;62.28
40994;BME280;26722;43.212;27.932;2023-06-14T03:13:30;54964.09;;;-146.72;61.31
40994;BME280;26722;43.212;27.932;2023-06-14T03:15:57;54964.09;;;-146.72;58.95
40994;BME280;26722;43.212;27.932;2023-06-14T03:18:22;54947.19;;;-146.72;56.56
40994;BME280;26722;43.212;27.932;2023-06-14T03:20:48;54949.31;;;-146.72;55.69
40994;BME280;26722;43.212;27.932;2023-06-14T03:23:13;54942.97;;;-146.72;54.67
40994;BME280;26722;43.212;27.932;2023-06-14T03:25:38;54945.09;;;-146.72;54.25
40994;BME280;26722;43.212;27.932;2023-06-14T03:28:07;54959.88;;;-146.72;55.19
40994;BME280;26722;43.212;27.932;2023-06-14T03:30:32;54926.09;;;-146.72;53.59
40994;BME280;26722;43.212;27.932;2023-06-14T03:32:57;54921.88;;;-146.72;51.10
40994;BME280;26722;43.212;27.932;2023-06-14T03:35:26;54904.97;;;-146.72;49.49
40994;BME280;26722;43.212;27.932;2023-06-14T03:37:51;54888.09;;;-146.72;48.71
40994;BME280;26722;43.212;27.932;2023-06-14T03:40:17;54892.31;;;-146.72;47.49
40994;BME280;26722;43.212;27.932;2023-06-14T03:42:42;54907.09;;;-146.72;46.29
40994;BME280;26722;43.212;27.932;2023-06-14T03:45:08;54896.53;;;-146.72;46.07
40994;BME280;26722;43.212;27.932;2023-06-14T03:47:33;54900.75;;;-146.72;45.38
40994;BME280;26722;43.212;27.932;2023-06-14T03:49:59;54881.75;;;-146.72;44.15
40994;BME280;26722;43.212;27.932;2023-06-14T03:52:25;54881.75;;;-146.72;44.45
40994;BME280;26722;43.212;27.932;2023-06-14T03:54:51;54888.09;;;-146.72;44.35
40994;BME280;26722;43.212;27.932;2023-06-14T03:57:16;54883.84;;;-146.72;44.21
40994;BME280;26722;43.212;27.932;2023-06-14T03:59:42;54862.75;;;-146.72;44.02
40994;BME280;26722;43.212;27.932;2023-06-14T04:02:07;54875.41;;;-146.72;42.94
40994;BME280;26722;43.212;27.932;2023-06-14T04:04:34;54862.75;;;-146.72;42.31
40994;BME280;26722;43.212;27.932;2023-06-14T04:07:00;54875.41;;;-146.72;43.80
40994;BME280;26722;43.212;27.932;2023-06-14T04:09:26;54879.63;;;-146.72;44.12
40994;BME280;26722;43.212;27.932;2023-06-14T04:11:54;54871.19;;;-146.72;43.71
40994;BME280;26722;43.212;27.932;2023-06-14T04:14:20;54871.19;;;-146.72;43.22
40994;BME280;26722;43.212;27.932;2023-06-14T04:16:46;54862.75;;;-146.72;42.72
40994;BME280;26722;43.212;27.932;2023-06-14T04:19:11;54862.75;;;-146.72;42.42
40994;BME280;26722;43.212;27.932;2023-06-14T04:21:36;54896.53;;;-146.72;44.54
40994;BME280;26722;43.212;27.932;2023-06-14T04:24:02;54904.97;;;-146.72;46.09
40994;BME280;26722;43.212;27.932;2023-06-14T04:26:27;54913.41;;;-146.72;48.10
40994;BME280;26722;43.212;27.932;2023-06-14T04:28:55;54923.97;;;-146.72;48.87
40994;BME280;26722;43.212;27.932;2023-06-14T04:31:22;54926.09;;;-146.72;49.15
40994;BME280;26722;43.212;27.932;2023-06-14T04:33:50;54928.19;;;-146.72;50.72
40994;BME280;26722;43.212;27.932;2023-06-14T04:36:15;54904.97;;;-146.72;51.01
40994;BME280;26722;43.212;27.932;2023-06-14T04:38:42;54907.09;;;-146.72;49.63
40994;BME280;26722;43.212;27.932;2023-06-14T04:41:10;54909.19;;;-146.72;49.61
40994;BME280;26722;43.212;27.932;2023-06-14T04:43:36;54930.31;;;-146.72;50.30
40994;BME280;26722;43.212;27.932;2023-06-14T04:46:06;54913.41;;;-146.72;50.00
40994;BME280;26722;43.212;27.932;2023-06-14T04:48:36;54923.97;;;-146.72;50.48
40994;BME280;26722;43.212;27.932;2023-06-14T04:51:01;54926.09;;;-146.72;50.42
40994;BME280;26722;43.212;27.932;2023-06-14T04:53:29;54934.53;;;-146.72;51.69
40994;BME280;26722;43.212;27.932;2023-06-14T04:55:54;54928.19;;;-146.72;52.96
40994;BME280;26722;43.212;27.932;2023-06-14T04:58:20;54942.97;;;-146.72;52.67
40994;BME280;26722;43.212;27.932;2023-06-14T05:00:45;54942.97;;;-146.72;53.54
40994;BME280;26722;43.212;27.932;2023-06-14T05:03:10;54947.19;;;-146.72;53.98
40994;BME280;26722;43.212;27.932;2023-06-14T05:05:38;54947.19;;;-146.72;54.93
40994;BME280;26722;43.212;27.932;2023-06-14T05:08:04;54964.09;;;-146.72;55.57
40994;BME280;26722;43.212;27.932;2023-06-14T05:10:29;54957.75;;;-146.72;57.18
40994;BME280;26722;43.212;27.932;2023-06-14T05:12:54;54959.88;;;-146.72;57.74
40994;BME280;26722;43.212;27.932;2023-06-14T05:15:20;54972.53;;;-146.72;57.52
40994;BME280;26722;43.212;27.932;2023-06-14T05:17:50;54974.63;;;-146.72;58.35
40994;BME280;26722;43.212;27.932;2023-06-14T05:20:19;54951.41;;;-146.72;58.97
40994;BME280;26722;43.212;27.932;2023-06-14T05:22:45;54974.63;;;-146.72;59.58
40994;BME280;26722;43.212;27.932;2023-06-14T05:25:10;54972.53;;;-146.72;58.81
40994;BME280;26722;43.212;27.932;2023-06-14T05:27:35;54978.88;;;-146.72;60.24
40994;BME280;26722;43.212;27.932;2023-06-14T05:30:02;54961.97;;;-146.72;59.03
40994;BME280;26722;43.212;27.932;2023-06-14T05:32:29;54957.75;;;-146.72;59.47
40994;BME280;26722;43.212;27.932;2023-06-14T05:34:54;54964.09;;;-146.72;59.04
40994;BME280;26722;43.212;27.932;2023-06-14T05:37:19;54955.63;;;-146.72;58.93
40994;BME280;26722;43.212;27.932;2023-06-14T05:39:44;54957.75;;;-146.72;59.35
40994;BME280;26722;43.212;27.932;2023-06-14T05:42:10;54972.53;;;-146.72;58.93
40994;BME280;26722;43.212;27.932;2023-06-14T05:44:36;54966.19;;;-146.72;59.67
40994;BME280;26722;43.212;27.932;2023-06-14T05:47:01;54961.97;;;-146.72;59.30
40994;BME280;26722;43.212;27.932;2023-06-14T05:49:26;54957.75;;;-146.72;59.14
40994;BME280;26722;43.212;27.932;2023-06-14T05:51:52;54955.63;;;-146.72;58.60
40994;BME280;26722;43.212;27.932;2023-06-14T05:54:17;54942.97;;;-146.72;58.53
40994;BME280;26722;43.212;27.932;2023-06-14T05:56:42;54947.19;;;-146.72;58.36
40994;BME280;26722;43.212;27.932;2023-06-14T05:59:08;54947.19;;;-146.72;57.56
40994;BME280;26722;43.212;27.932;2023-06-14T06:01:33;54957.75;;;-146.72;56.44
40994;BME280;26722;43.212;27.932;2023-06-14T06:04:01;54961.97;;;-146.72;56.69
40994;BME280;26722;43.212;27.932;2023-06-14T06:06:27;54959.88;;;-146.72;56.61
40994;BME280;26722;43.212;27.932;2023-06-14T06:08:52;54942.97;;;-146.72;55.73
40994;BME280;26722;43.212;27.932;2023-06-14T06:11:17;54934.53;;;-146.72;55.56
40994;BME280;26722;43.212;27.932;2023-06-14T06:13:42;54930.31;;;-146.72;53.50
40994;BME280;26722;43.212;27.932;2023-06-14T06:16:08;54942.97;;;-146.72;53.61
40994;BME280;26722;43.212;27.932;2023-06-14T06:18:33;54921.88;;;-146.72;53.17
40994;BME280;26722;43.212;27.932;2023-06-14T06:20:59;54932.41;;;-146.72;53.67
40994;BME280;26722;43.212;27.932;2023-06-14T06:23:25;54942.97;;;-146.72;52.13
40994;BME280;26722;43.212;27.932;2023-06-14T06:25:50;54928.19;;;-146.72;51.57
40994;BME280;26722;43.212;27.932;2023-06-14T06:28:17;54947.19;;;-146.72;52.12
40994;BME280;26722;43.212;27.932;2023-06-14T06:30:42;54951.41;;;-146.72;53.66
40994;BME280;26722;43.212;27.932;2023-06-14T06:33:07;54951.41;;;-146.72;53.61
40994;BME280;26722;43.212;27.932;2023-06-14T06:35:33;54949.31;;;-146.72;52.79
40994;BME280;26722;43.212;27.932;2023-06-14T06:37:58;54968.31;;;-146.72;53.41
40994;BME280;26722;43.212;27.932;2023-06-14T06:40:24;54934.53;;;-146.72;53.24
40994;BME280;26722;43.212;27.932;2023-06-14T06:42:49;54934.53;;;-146.72;50.65
40994;BME280;26722;43.212;27.932;2023-06-14T06:45:15;54926.09;;;-146.72;50.57
40994;BME280;26722;43.212;27.932;2023-06-14T06:47:40;54934.53;;;-146.72;48.42
40994;BME280;26722;43.212;27.932;2023-06-14T06:50:05;54934.53;;;-146.72;48.77
40994;BME280;26722;43.212;27.932;2023-06-14T06:52:32;54923.97;;;-146.72;49.03
40994;BME280;26722;43.212;27.932;2023-06-14T06:54:58;54938.75;;;-146.72;48.16
40994;BME280;26722;43.212;27.932;2023-06-14T06:57:23;54926.09;;;-146.72;48.62
40994;BME280;26722;43.212;27.932;2023-06-14T06:59:49;54926.09;;;-146.72;48.15
40994;BME280;26722;43.212;27.932;2023-06-14T07:02:14;54919.75;;;-146.72;48.36
40994;BME280;26722;43.212;27.932;2023-06-14T07:04:40;54921.88;;;-146.72;46.62
40994;BME280;26722;43.212;27.932;2023-06-14T07:07:06;54921.88;;;-146.72;46.74
40994;BME280;26722;43.212;27.932;2023-06-14T07:09:31;54926.09;;;-146.72;46.33
40994;BME280;26722;43.212;27.932;2023-06-14T07:11:57;54913.41;;;-146.72;46.21
40994;BME280;26722;43.212;27.932;2023-06-14T07:14:22;54909.19;;;-146.72;45.79
40994;BME280;26722;43.212;27.932;2023-06-14T07:16:48;54909.19;;;-146.72;44.97
40994;BME280;26722;43.212;27.932;2023-06-14T07:19:14;54907.09;;;-146.72;44.94
40994;BME280;26722;43.212;27.932;2023-06-14T07:21:40;54904.97;;;-146.72;44.88
40994;BME280;26722;43.212;27.932;2023-06-14T07:24:05;54911.31;;;-146.72;43.89
40994;BME280;26722;43.212;27.932;2023-06-14T07:26:31;54913.41;;;-146.72;44.50
40994;BME280;26722;43.212;27.932;2023-06-14T07:28:57;54904.97;;;-146.72;44.83
40994;BME280;26722;43.212;27.932;2023-06-14T07:31:22;54896.53;;;-146.72;45.11
40994;BME280;26722;43.212;27.932;2023-06-14T07:33:47;54900.75;;;-146.72;44.29
40994;BME280;26722;43.212;27.932;2023-06-14T07:36:12;54896.53;;;-146.72;43.09
40994;BME280;26722;43.212;27.932;2023-06-14T07:38:41;54900.75;;;-146.72;43.02
40994;BME280;26722;43.212;27.932;2023-06-14T07:41:07;54888.09;;;-146.72;42.32
40994;BME280;26722;43.212;27.932;2023-06-14T07:43:32;54902.84;;;-146.72;43.01
40994;BME280;26722;43.212;27.932;2023-06-14T07:45:58;54896.53;;;-146.72;43.69
40994;BME280;26722;43.212;27.932;2023-06-14T07:48:23;54907.09;;;-146.72;44.01
40994;BME280;26722;43.212;27.932;2023-06-14T07:50:48;54898.63;;;-146.72;43.82
40994;BME280;26722;43.212;27.932;2023-06-14T07:53:14;54902.84;;;-146.72;42.87
40994;BME280;26722;43.212;27.932;2023-06-14T07:55:39;54911.31;;;-146.72;42.63
40994;BME280;26722;43.212;27.932;2023-06-14T07:58:11;54869.09;;;-146.72;42.23
40994;BME280;26722;43.212;27.932;2023-06-14T08:00:36;54879.63;;;-146.72;41.45
40994;BME280;26722;43.212;27.932;2023-06-14T08:03:01;54879.63;;;-146.72;41.41
40994;BME280;26722;43.212;27.932;2023-06-14T08:05:27;54881.75;;;-146.72;40.98
40994;BME280;26722;43.212;27.932;2023-06-14T08:07:52;54883.84;;;-146.72;40.28
40994;BME280;26722;43.212;27.932;2023-06-14T08:10:18;54881.75;;;-146.72;41.28
40994;BME280;26722;43.212;27.932;2023-06-14T08:12:43;54871.19;;;-146.72;41.35
40994;BME280;26722;43.212;27.932;2023-06-14T08:15:09;54879.63;;;-146.72;41.41
40994;BME280;26722;43.212;27.932;2023-06-14T08:17:34;54892.31;;;-146.72;41.66
40994;BME280;26722;43.212;27.932;2023-06-14T08:20:00;54892.31;;;-146.72;43.17
40994;BME280;26722;43.212;27.932;2023-06-14T08:22:25;54894.41;;;-146.72;42.69
40994;BME280;26722;43.212;27.932;2023-06-14T08:24:53;54892.31;;;-146.72;43.02
40994;BME280;26722;43.212;27.932;2023-06-14T08:27:19;54890.19;;;-146.72;41.71
40994;BME280;26722;43.212;27.932;2023-06-14T08:29:44;54904.97;;;-146.72;42.31
40994;BME280;26722;43.212;27.932;2023-06-14T08:32:10;54900.75;;;-146.72;41.62
40994;BME280;26722;43.212;27.932;2023-06-14T08:34:35;54894.41;;;-146.72;42.80
40994;BME280;26722;43.212;27.932;2023-06-14T08:37:00;54866.97;;;-146.72;44.23
40994;BME280;26722;43.212;27.932;2023-06-14T08:39:26;54866.97;;;-146.72;44.82
40994;BME280;26722;43.212;27.932;2023-06-14T08:41:52;54866.97;;;-146.72;46.08
40994;BME280;26722;43.212;27.932;2023-06-14T08:44:17;54869.09;;;-146.72;46.79
40994;BME280;26722;43.212;27.932;2023-06-14T08:46:43;54881.75;;;-146.72;47.02
40994;BME280;26722;43.212;27.932;2023-06-14T08:49:11;54875.41;;;-146.72;46.38
40994;BME280;26722;43.212;27.932;2023-06-14T08:51:36;54858.53;;;-146.72;45.75
40994;BME280;26722;43.212;27.932;2023-06-14T08:54:02;54858.53;;;-146.72;45.04
40994;BME280;26722;43.212;27.932;2023-06-14T08:56:29;54856.41;;;-146.72;43.67
40994;BME280;26722;43.212;27.932;2023-06-14T08:58:55;54858.53;;;-146.72;44.37
40994;BME280;26722;43.212;27.932;2023-06-14T09:01:22;54871.19;;;-146.72;45.92
40994;BME280;26722;43.212;27.932;2023-06-14T09:03:48;54854.31;;;-146.72;45.85
40994;BME280;26722;43.212;27.932;2023-06-14T09:06:13;54879.63;;;-146.72;45.98
40994;BME280;26722;43.212;27.932;2023-06-14T09:08:42;54883.84;;;-146.72;46.62
40994;BME280;26722;43.212;27.932;2023-06-14T09:11:15;54871.19;;;-146.72;46.59
40994;BME280;26722;43.212;27.932;2023-06-14T09:13:40;54890.19;;;-146.72;47.22
40994;BME280;26722;43.212;27.932;2023-06-14T09:16:06;54881.75;;;-146.72;48.17
40994;BME280;26722;43.212;27.932;2023-06-14T09:18:36;54888.09;;;-146.72;48.17
40994;BME280;26722;43.212;27.932;2023-06-14T09:21:01;54894.41;;;-146.72;48.78
40994;BME280;26722;43.212;27.932;2023-06-14T09:23:26;54879.63;;;-146.72;48.60
40994;BME280;26722;43.212;27.932;2023-06-14T09:25:52;54860.63;;;-146.72;47.39
40994;BME280;26722;43.212;27.932;2023-06-14T09:28:17;54850.09;;;-146.72;46.17
40994;BME280;26722;43.212;27.932;2023-06-14T09:30:42;54860.63;;;-146.72;45.60
40994;BME280;26722;43.212;27.932;2023-06-14T09:33:08;54850.09;;;-146.72;44.20
40994;BME280;26722;43.212;27.932;2023-06-14T09:35:33;54841.63;;;-146.72;44.29
40994;BME280;26722;43.212;27.932;2023-06-14T09:37:59;54854.31;;;-146.72;44.40
40994;BME280;26722;43.212;27.932;2023-06-14T09:40:24;54852.19;;;-146.72;44.67
40994;BME280;26722;43.212;27.932;2023-06-14T09:42:50;54862.75;;;-146.72;45.46
40994;BME280;26722;43.212;27.932;2023-06-14T09:45:16;54860.63;;;-146.72;45.27
40994;BME280;26722;43.212;27.932;2023-06-14T09:47:47;54845.88;;;-146.72;44.60
40994;BME280;26722;43.212;27.932;2023-06-14T09:50:12;54845.88;;;-146.72;43.50
40994;BME280;26722;43.212;27.932;2023-06-14T09:52:38;54847.97;;;-146.72;44.20
40994;BME280;26722;43.212;27.932;2023-06-14T09:55:05;54845.88;;;-146.72;44.05
40994;BME280;26722;43.212;27.932;2023-06-14T09:57:36;54850.09;;;-146.72;44.07
40994;BME280;26722;43.212;27.932;2023-06-14T10:00:03;54854.31;;;-146.72;44.56
40994;BME280;26722;43.212;27.932;2023-06-14T10:02:35;54839.53;;;-146.72;44.03
40994;BME280;26722;43.212;27.932;2023-06-14T10:07:31;54833.19;;;-146.72;42.64
40994;BME280;26722;43.212;27.932;2023-06-14T10:09:57;54822.63;;;-146.72;41.49
40994;BME280;26722;43.212;27.932;2023-06-14T10:12:23;54839.53;;;-146.72;41.86
40994;BME280;26722;43.212;27.932;2023-06-14T10:14:49;54831.09;;;-146.72;42.36
40994;BME280;26722;43.212;27.932;2023-06-14T10:17:17;54837.41;;;-146.72;42.44
40994;BME280;26722;43.212;27.932;2023-06-14T10:19:55;54833.19;;;-146.72;41.37
40994;BME280;26722;43.212;27.932;2023-06-14T10:22:32;54818.41;;;-146.72;41.09
40994;BME280;26722;43.212;27.932;2023-06-14T10:24:59;54820.53;;;-146.72;41.11
40994;BME280;26722;43.212;27.932;2023-06-14T10:27:24;54820.53;;;-146.72;40.67
40994;BME280;26722;43.212;27.932;2023-06-14T10:32:18;54820.53;;;-146.72;41.63
40994;BME280;26722;43.212;27.932;2023-06-14T10:34:44;54816.31;;;-146.72;41.83
40994;BME280;26722;43.212;27.932;2023-06-14T10:37:13;54841.63;;;-146.72;42.01
40994;BME280;26722;43.212;27.932;2023-06-14T10:39:42;54824.75;;;-146.72;42.30
40994;BME280;26722;43.212;27.932;2023-06-14T10:42:07;54841.63;;;-146.72;42.56
40994;BME280;26722;43.212;27.932;2023-06-14T10:44:33;54828.97;;;-146.72;42.39
40994;BME280;26722;43.212;27.932;2023-06-14T10:46:59;54822.63;;;-146.72;42.77
40994;BME280;26722;43.212;27.932;2023-06-14T10:49:44;54841.63;;;-146.72;42.74
40994;BME280;26722;43.212;27.932;2023-06-14T10:52:11;54816.31;;;-146.72;42.36
40994;BME280;26722;43.212;27.932;2023-06-14T10:55:27;54826.88;;;-146.72;42.17
40994;BME280;26722;43.212;27.932;2023-06-14T10:57:29;54820.53;;;-146.72;41.63
40994;BME280;26722;43.212;27.932;2023-06-14T10:59:56;54828.97;;;-146.72;42.28
40994;BME280;26722;43.212;27.932;2023-06-14T11:04:54;54831.09;;;-146.72;42.85
40994;BME280;26722;43.212;27.932;2023-06-14T11:12:38;54833.19;;;-146.72;41.84
40994;BME280;26722;43.212;27.932;2023-06-14T11:15:05;54831.09;;;-146.72;41.63
40994;BME280;26722;43.212;27.932;2023-06-14T11:17:30;54820.53;;;-146.72;41.25
40994;BME280;26722;43.212;27.932;2023-06-14T11:20:08;54828.97;;;-146.72;41.54
40994;BME280;26722;43.212;27.932;2023-06-14T11:22:43;54837.41;;;-146.72;42.23
40994;BME280;26722;43.212;27.932;2023-06-14T11:25:09;54837.41;;;-146.72;43.09
40994;BME280;26722;43.212;27.932;2023-06-14T11:27:35;54845.88;;;-146.72;43.32
40994;BME280;26722;43.212;27.932;2023-06-14T11:30:00;54826.88;;;-146.72;43.80
40994;BME280;26722;43.212;27.932;2023-06-14T11:32:25;54841.63;;;-146.72;44.93
40994;BME280;26722;43.212;27.932;2023-06-14T11:34:51;54850.09;;;-146.72;46.03
40994;BME280;26722;43.212;27.932;2023-06-14T11:37:16;54847.97;;;-146.72;46.21
40994;BME280;26722;43.212;27.932;2023-06-14T11:39:45;54854.31;;;-146.72;46.64
40994;BME280;26722;43.212;27.932;2023-06-14T11:42:14;54841.63;;;-146.72;46.49
40994;BME280;26722;43.212;27.932;2023-06-14T11:44:40;54837.41;;;-146.72;45.04
40994;BME280;26722;43.212;27.932;2023-06-14T11:47:05;54858.53;;;-146.72;46.04
40994;BME280;26722;43.212;27.932;2023-06-14T11:49:34;54845.88;;;-146.72;46.74
40994;BME280;26722;43.212;27.932;2023-06-14T11:52:00;54850.09;;;-146.72;46.24
40994;BME280;26722;43.212;27.932;2023-06-14T11:54:25;54845.88;;;-146.72;45.10
40994;BME280;26722;43.212;27.932;2023-06-14T11:56:51;54850.09;;;-146.72;45.04
40994;BME280;26722;43.212;27.932;2023-06-14T11:59:16;54845.88;;;-146.72;45.18
40994;BME280;26722;43.212;27.932;2023-06-14T12:01:42;54862.75;;;-146.72;45.10
40994;BME280;26722;43.212;27.932;2023-06-14T12:04:08;54843.75;;;-146.72;45.55
40994;BME280;26722;43.212;27.932;2023-06-14T12:06:33;54850.09;;;-146.72;45.95
40994;BME280;26722;43.212;27.932;2023-06-14T12:09:04;54843.75;;;-146.72;45.81
40994;BME280;26722;43.212;27.932;2023-06-14T12:11:32;54841.63;;;-146.72;45.90
40994;BME280;26722;43.212;27.932;2023-06-14T12:13:58;54845.88;;;-146.72;46.44
40994;BME280;26722;43.212;27.932;2023-06-14T12:16:29;54850.09;;;-146.72;48.44
40994;BME280;26722;43.212;27.932;2023-06-14T12:18:55;54854.31;;;-146.72;52.32
40994;BME280;26722;43.212;27.932;2023-06-14T12:21:22;54850.09;;;-146.72;54.75
40994;BME280;26722;43.212;27.932;2023-06-14T12:23:48;54860.63;;;-146.72;56.42
40994;BME280;26722;43.212;27.932;2023-06-14T12:26:17;54866.97;;;-146.72;57.43
40994;BME280;26722;43.212;27.932;2023-06-14T12:28:46;54879.63;;;-146.72;57.88
40994;BME280;26722;43.212;27.932;2023-06-14T12:31:12;54890.19;;;-146.72;58.84
40994;BME280;26722;43.212;27.932;2023-06-14T12:33:41;54871.19;;;-146.72;58.76
40994;BME280;26722;43.212;27.932;2023-06-14T12:36:07;54881.75;;;-146.72;58.79
40994;BME280;26722;43.212;27.932;2023-06-14T12:38:33;54885.97;;;-146.72;58.81
40994;BME280;26722;43.212;27.932;2023-06-14T12:40:58;54883.84;;;-146.72;59.08